• Join FlightAware (Why Join?)
  • Login
  • US Flag 
09:22PM EDT


 

Airport Tracker/Info


-or-


 

Live Flight TrackerFlight Track Log ✈ N421AW ✈ 26-Apr-2013 ✈ KVCT - 3R2

Flight Track Log - Related Links

Times and Time Zones

All times are in EDT time to prevent confusion due to time zone crossing. See the N421AW flight status page for this flight to view local times or setup timezone preferences in your user account.

Time Position Orientation Groundspeed Altitude Reporting Facility
EDT Latitude Longitude Course Direction KTS MPH feet Rate Location/Type
04:51PM 28.8111 -96.8647 100° East 82 94 2,000  Level Houston Center
04:52PM 28.7947 -96.8356 123° Southeast 106 122 2,700 720 Climbing Houston Center
04:53PM 28.7995 -96.5653 111° Southeast  Level FlightAware Approximate
04:53PM 28.8075 -96.7975 69° East 124 143 3,500  Level Houston Center
04:54PM 28.7822 -96.5094 100° East  Level FlightAware Approximate
04:55PM 28.7732 -96.4508 100° East  Level FlightAware Approximate
04:55PM 28.8186 -96.7611 71° East 123 142 4,100  Level Houston Center
04:56PM 28.7642 -96.3923 100° East  Level FlightAware Approximate
04:56PM 28.8322 -96.7142 72° East 127 146 5,000  Level Houston Center
04:57PM 28.7552 -96.3337 100° East  Level FlightAware Approximate
04:57PM 28.8372 -96.6736 82° East 128 147 5,600  Level Houston Center
04:58PM 28.8392 -96.6261 87° East 144 166 6,100 540 Climbing Houston Center
04:59PM 28.8481 -96.5781 78° East 152 175 6,800 480 Climbing Houston Center
05:00PM 28.8553 -96.5308 80° East 152 175 7,200 480 Climbing Houston Center
05:01PM 28.8625 -96.4708 82° East 159 183 7,900 540 Climbing Houston Center
05:02PM 28.8714 -96.4197 79° East 164 189 8,400 480 Climbing Houston Center
05:03PM 28.8783 -96.3672 81° East 167 192 8,900 240 Climbing Houston Center
05:04PM 28.8847 -96.3081 83° East 183 211 8,900  Level Houston Center
05:05PM 28.8922 -96.2456 82° East 196 226 8,900  Level Houston Center
05:06PM 28.9033 -96.1833 78° East 200 230 8,900  Level Houston Center
05:07PM 28.9142 -96.1078 81° East 201 231 8,900  Level Houston Center
05:08PM 28.9233 -96.0456 80° East 201 231 8,900  Level Houston Center
05:09PM 28.9317 -95.9833 81° East 200 230 8,900  Level Houston Center
05:10PM 28.9397 -95.9336 80° East 200 230 9,000 60 Climbing Houston Center
05:10PM 28.9397 -95.9233 90° East 198 228 9,000  Level Houston Center
05:11PM 28.9489 -95.8614 80° East 198 228 9,000  Level Houston Center
05:11PM 28.9536 -95.8294 80° East 196 226 9,000  Level Houston Center
05:12PM 28.9583 -95.7875 83° East 197 227 9,000  Level Houston Center
05:13PM 28.9672 -95.7261 81° East 197 227 9,000  Level Houston Center
05:13PM 28.9742 -95.7075 67° East 195 224 9,000  Level Houston Center
05:14PM 28.9858 -95.6658 72° East 201 231 9,000  Level Houston Center
05:15PM 29.0069 -95.6086 67° East 199 229 9,000  Level Houston Center
05:15PM 29.0161 -95.5881 63° Northeast 198 228 9,000  Level Houston Center
05:16PM 29.0283 -95.5522 69° East 195 224 9,000  Level Houston Center
05:17PM 29.0522 -95.4833 68° East 195 224 9,000  Level Houston Center
05:18PM 29.0744 -95.4236 67° East 197 227 9,000  Level Houston Center
05:19PM 29.0919 -95.3667 71° East 198 228 9,000  Level Houston Center
05:20PM 29.1158 -95.3014 67° East 197 227 9,000  Level Houston Center
05:21PM 29.1331 -95.2517 68° East 197 227 9,000  Level Houston Center
05:22PM 29.1572 -95.1817 68° East 198 228 9,000  Level Houston Center
05:23PM 29.1789 -95.1239 67° East 197 227 9,000  Level Houston Center
05:25PM 29.1975 -95.0653 70° East 199 229 9,000  Level Houston Center
05:26PM 29.2183 -95.0069 68° East 199 229 9,000  Level Houston Center
05:27PM 29.2397 -94.9439 69° East 197 227 9,000  Level Houston Center
05:28PM 29.2581 -94.8892 69° East 200 230 9,000  Level Houston Center
05:29PM 29.2869 -94.8211 64° Northeast 201 231 9,000  Level Houston Center
05:30PM 29.3158 -94.7661 59° Northeast 202 232 9,000  Level Houston Center
05:31PM 29.3436 -94.7128 59° Northeast 203 234 9,000  Level Houston Center
05:32PM 29.3742 -94.6561 58° Northeast 203 234 9,000  Level Houston Center
05:33PM 29.4036 -94.5972 60° Northeast 203 234 9,000  Level Houston Center
05:34PM 29.4356 -94.5333 60° Northeast 203 234 9,000  Level Houston Center
05:35PM 29.4633 -94.4769 60° Northeast 204 235 9,000  Level Houston Center
05:36PM 29.4911 -94.4203 61° Northeast 204 235 9,000  Level Houston Center
05:37PM 29.5211 -94.3611 60° Northeast 202 232 9,000  Level Houston Center
05:38PM 29.5475 -94.3097 59° Northeast 204 235 9,000  Level Houston Center
05:39PM 29.5792 -94.2478 60° Northeast 202 232 9,000  Level Houston Center
05:40PM 29.6089 -94.1875 60° Northeast 202 232 9,000 -120 Level Houston Center
05:41PM 29.6350 -94.1347 60° Northeast 203 234 8,800 -660 Descending Houston Center
05:42PM 29.6642 -94.0683 63° Northeast 234 269 7,800 -900 Descending Houston Center
05:43PM 29.6906 -93.9972 67° East 230 265 7,000 -480 Descending Houston Center
05:44PM 29.7164 -93.9408 62° Northeast 202 232 6,900 -60 Descending Houston Center
05:45PM 29.7356 -93.8828 69° East 181 208 6,900  Level Houston Center
05:46PM 29.7525 -93.8228 72° East 183 211 6,900  Level Houston Center
05:47PM 29.7714 -93.7547 72° East 184 212 7,000  Climbing Houston Center
05:48PM 29.7886 -93.6989 70° East 186 214 7,000  Level Houston Center
05:49PM 29.8061 -93.6436 70° East 184 212 7,000 -300 Level Houston Center
05:50PM 29.8242 -93.5867 70° East 189 217 6,500 -780 Descending Houston Center
05:51PM 29.8394 -93.5200 75° East 210 242 5,500 -780 Descending Houston Center
05:52PM 29.8581 -93.4522 72° East 221 254 5,000 -300 Descending Houston Center
05:54PM 29.8847 -93.3861 65° Northeast 195 224 5,000 -540 Level Houston Center
05:55PM 29.9056 -93.3306 67° East 190 219 4,000 -960 Descending Houston Center
05:56PM 29.9250 -93.2678 70° East 197 227 3,000 -540 Descending Houston Center
05:57PM 29.9428 -93.2081 71° East 200 230 2,900 -60 Descending Houston Center
05:58PM 29.9547 -93.1606 74° East 180 207 2,900  Level Houston Center
05:59PM 29.9689 -93.1072 73° East 157 181 2,900 -360 Level Houston Center
06:00PM 29.9833 -93.0594 71° East 154 177 2,200 -720 Descending Houston Center
06:01PM 30.0006 -93.0019 71° East 171 197 1,500 -300 Descending Houston Center
06:02PM 30.0222 -92.9536 63° Northeast 173 199 1,600  Climbing Houston Center
06:03PM 30.0361 -92.9086 70° East 163 188 1,500  Descending Houston Center
06:04PM 30.0492 -92.8544 74° East 153 176 1,600  Climbing Houston Center
06:05PM 30.0608 -92.8106 73° East 148 170 1,600  Level Houston Center
06:06PM 30.0739 -92.7678 71° East 147 169 1,600  Level Houston Center
06:08PM 30.0982 -92.6858 71° East  Level FlightAware Approximate
06:15PM 30.1500 -92.4833 90° East  Level FlightAware Approximate
06:16PM 30.1618 -92.4840 90° East  Level Estimated
06:17PM 30.1618 -92.4840 90° East  Level Estimated
06:18PM 30.1618 -92.4840 90° East  Level Estimated
06:19PM 30.1618 -92.4840 90° East  Level Estimated
06:20PM 30.1618 -92.4840 90° East  Level Estimated
06:21PM 30.1618 -92.4840 90° East  Level Estimated
06:22PM 30.1618 -92.4840 90° East  Level Estimated
06:23PM 30.1618 -92.4840 90° East  Level Estimated
06:24PM 30.1618 -92.4840 90° East  Level Estimated
06:25PM 30.1618 -92.4840 90° East  Level Estimated
06:26PM 30.1618 -92.4840 90° East  Level Estimated
06:27PM 30.1618 -92.4840 90° East  Level Estimated
06:28PM 30.1618 -92.4840 90° East  Level Estimated
06:29PM 30.1618 -92.4840 90° East  Level Estimated
06:30PM 30.1618 -92.4840 90° East  Level Estimated